createdAt,value
2018-06-23T00:00:52.904Z,94714.47
2018-06-23T00:03:21.566Z,94687.27
2018-06-23T00:05:50.183Z,94698.13
2018-06-23T00:08:18.808Z,94696.45
2018-06-23T00:10:47.486Z,94698.77
2018-06-23T00:13:16.114Z,94697.31
2018-06-23T00:15:44.731Z,94698.13
2018-06-23T00:18:13.389Z,94701.54
2018-06-23T00:20:42.046Z,94701.36
2018-06-23T00:23:10.770Z,94689.48
2018-06-23T00:25:44.534Z,94689.63
2018-06-23T00:28:13.145Z,94687.84
2018-06-23T00:30:41.862Z,94701.78
2018-06-23T00:33:10.509Z,94711.44
2018-06-23T00:35:39.159Z,94703.11
2018-06-23T00:38:07.825Z,94691.47
2018-06-23T00:40:36.497Z,94706.44
2018-06-23T00:43:05.087Z,94718.30
2018-06-23T00:45:33.694Z,94707.42
2018-06-23T00:48:02.370Z,94709.98
2018-06-23T00:50:31.086Z,94716.41
2018-06-23T00:52:59.754Z,94717.45
2018-06-23T00:55:28.528Z,94709.17
2018-06-23T00:57:57.127Z,94719.58
2018-06-23T01:00:25.806Z,94727.02
2018-06-23T01:02:54.428Z,94714.08
2018-06-23T01:05:23.140Z,94721.95
2018-06-23T01:07:52.081Z,94727.11
2018-06-23T01:10:20.726Z,94718.17
2018-06-23T01:12:49.343Z,94730.75
2018-06-23T01:15:18.015Z,94725.45
2018-06-23T01:17:46.676Z,94733.04
2018-06-23T01:20:15.362Z,94737.33
2018-06-23T01:22:43.981Z,94729.27
2018-06-23T01:25:12.666Z,94723.73
2018-06-23T01:27:41.354Z,94721.05
2018-06-23T01:30:10.104Z,94730.91
2018-06-23T01:32:38.718Z,94733.33
2018-06-23T01:35:07.400Z,94736.48
2018-06-23T01:37:36.059Z,94739.59
2018-06-23T01:40:04.770Z,94736.34
2018-06-23T01:42:33.389Z,94729.73
2018-06-23T01:45:01.993Z,94735.44
2018-06-23T01:47:30.666Z,94752.50
2018-06-23T01:49:59.331Z,94758.18
2018-06-23T01:52:27.993Z,94756.70
2018-06-23T01:54:56.609Z,94746.64
2018-06-23T01:57:25.251Z,94763.85
2018-06-23T01:59:53.891Z,94752.71
2018-06-23T02:02:22.509Z,94752.85
2018-06-23T02:04:51.136Z,94763.67
2018-06-23T02:07:19.791Z,94756.19
2018-06-23T02:09:48.495Z,94761.11
2018-06-23T02:12:17.130Z,94775.39
2018-06-23T02:14:51.078Z,94774.73
2018-06-23T02:17:25.010Z,94791.52
2018-06-23T02:20:56.558Z,94783.38
2018-06-23T02:23:30.486Z,94786.68
2018-06-23T02:26:04.279Z,94785.88
2018-06-23T02:28:38.105Z,94810.90
2018-06-23T02:31:12.124Z,94813.72
2018-06-23T02:33:46.014Z,94808.22
2018-06-23T02:36:14.695Z,94794.41
2018-06-23T02:38:43.294Z,94803.87
2018-06-23T02:41:11.920Z,94796.25
2018-06-23T02:43:40.531Z,94788.66
2018-06-23T02:46:09.171Z,94811.77
2018-06-23T02:48:37.806Z,94803.29
2018-06-23T02:51:06.474Z,94805.68
2018-06-23T02:53:35.088Z,94824.91
2018-06-23T02:56:03.815Z,94814.67
2018-06-23T02:58:32.413Z,94807.16
2018-06-23T03:01:01.044Z,94822.45
2018-06-23T03:03:29.711Z,94822.18
2018-06-23T03:05:58.310Z,94824.45
2018-06-23T03:08:27.023Z,94853.88
2018-06-23T03:10:55.653Z,94864.16
2018-06-23T03:13:24.351Z,94858.33
2018-06-23T03:15:53.046Z,94882.09
2018-06-23T03:18:21.749Z,94855.09
2018-06-23T03:20:50.372Z,94869.40
2018-06-23T03:23:19.071Z,94866.80
2018-06-23T03:25:47.734Z,94852.47
2018-06-23T03:28:16.420Z,94875.90
2018-06-23T03:30:45.096Z,94876.72
2018-06-23T03:33:13.769Z,94875.13
2018-06-23T03:35:42.442Z,94883.07
2018-06-23T03:38:11.147Z,94889.27
2018-06-23T03:40:39.770Z,94910.26
2018-06-23T03:43:08.368Z,94883.95
2018-06-23T03:45:37.020Z,94885.07
2018-06-23T03:48:05.901Z,94888.16
2018-06-23T03:50:34.573Z,94895.77
2018-06-23T03:53:03.259Z,94895.61
2018-06-23T03:55:31.894Z,94889.57
2018-06-23T03:58:00.520Z,94899.50
2018-06-23T04:00:29.183Z,94900.02
2018-06-23T04:02:58.930Z,94893.84
2018-06-23T04:05:27.570Z,94884.06
2018-06-23T04:07:56.776Z,94892.84
2018-06-23T04:10:25.414Z,94858.58
2018-06-23T04:12:54.156Z,94877.41
2018-06-23T04:15:22.777Z,94890.41
2018-06-23T04:17:51.393Z,94879.53
2018-06-23T04:20:20.027Z,94881.13
2018-06-23T04:22:48.754Z,94897.26
2018-06-23T04:25:18.772Z,94892.22
2018-06-23T04:27:47.384Z,94888.33
2018-06-23T04:30:16.054Z,94894.81
2018-06-23T04:32:44.638Z,94889.92
2018-06-23T04:35:13.279Z,94892.37
2018-06-23T04:37:41.851Z,94896.93
2018-06-23T04:40:10.555Z,94899.36
2018-06-23T04:42:39.154Z,94895.95
2018-06-23T04:45:08.223Z,94914.33
2018-06-23T04:47:36.851Z,94890.77
2018-06-23T04:50:05.527Z,94897.44
2018-06-23T04:52:34.185Z,94898.59
2018-06-23T04:55:02.813Z,94913.05
2018-06-23T04:57:31.483Z,94914.69
2018-06-23T05:00:00.144Z,94925.08
2018-06-23T05:02:28.844Z,94914.81
2018-06-23T05:04:57.461Z,94911.91
2018-06-23T05:07:26.098Z,94908.16
2018-06-23T05:09:54.851Z,94915.16
2018-06-23T05:12:24.174Z,94908.02
2018-06-23T05:14:52.757Z,94924.42
2018-06-23T05:17:21.414Z,94918.09
2018-06-23T05:19:50.042Z,94912.72
2018-06-23T05:22:18.711Z,94932.37
2018-06-23T05:24:47.403Z,94923.42
2018-06-23T05:27:16.059Z,94940.33
2018-06-23T05:29:44.774Z,94950.86
2018-06-23T05:32:13.385Z,94936.89
2018-06-23T05:34:42.023Z,94965.41
2018-06-23T05:37:10.637Z,94941.88
2018-06-23T05:39:39.305Z,94960.38
2018-06-23T05:42:08.138Z,94956.78
2018-06-23T05:44:36.819Z,94977.72
2018-06-23T05:47:05.508Z,94972.06
2018-06-23T05:49:34.113Z,94970.09
2018-06-23T05:52:02.746Z,94957.75
2018-06-23T05:54:31.407Z,94970.26
2018-06-23T05:57:00.042Z,94966.83
2018-06-23T05:59:29.654Z,94976.08
2018-06-23T06:01:58.405Z,94980.42
2018-06-23T06:04:27.157Z,94979.57
2018-06-23T06:06:55.849Z,94997.74
2018-06-23T06:09:24.598Z,94984.42
2018-06-23T06:11:53.359Z,94984.92
2018-06-23T06:14:22.262Z,94997.73
2018-06-23T06:17:30.218Z,94988.19
2018-06-23T06:20:00.154Z,94974.20
2018-06-23T06:22:29.993Z,94976.47
2018-06-23T06:24:58.802Z,94977.59
2018-06-23T06:27:27.518Z,94977.48
2018-06-23T06:29:56.744Z,95001.52
2018-06-23T06:32:25.792Z,94973.77
2018-06-23T06:34:54.570Z,94980.77
2018-06-23T06:37:23.296Z,94975.75
2018-06-23T06:39:51.981Z,94989.57
2018-06-23T06:42:20.654Z,95003.55
2018-06-23T06:44:49.371Z,94983.13
2018-06-23T06:47:19.474Z,94988.98
2018-06-23T06:49:48.338Z,94985.27
2018-06-23T06:52:17.127Z,94994.84
2018-06-23T06:54:46.014Z,94986.76
2018-06-23T06:57:14.682Z,94977.33
2018-06-23T06:59:43.324Z,94998.77
2018-06-23T07:02:12.034Z,94982.08
2018-06-23T07:04:40.686Z,94987.30
2018-06-23T07:07:09.278Z,94977.70
2018-06-23T07:09:38.118Z,94981.78
2018-06-23T07:12:06.919Z,94981.29
2018-06-23T07:14:36.681Z,94992.00
2018-06-23T07:17:05.395Z,94976.23
2018-06-23T07:19:34.054Z,94979.66
2018-06-23T07:22:02.706Z,94986.14
2018-06-23T07:24:31.571Z,94981.71
2018-06-23T07:27:00.388Z,94993.23
2018-06-23T07:29:28.919Z,94987.48
2018-06-23T07:31:57.613Z,94996.42
2018-06-23T07:34:26.329Z,94994.93
2018-06-23T07:36:54.850Z,94984.83
2018-06-23T07:39:23.573Z,94993.19
2018-06-23T07:41:52.183Z,94994.84
2018-06-23T07:44:20.905Z,95008.67
2018-06-23T07:46:49.494Z,95008.87
2018-06-23T07:49:18.165Z,95003.03
2018-06-23T07:51:46.798Z,95004.81
2018-06-23T07:54:15.547Z,95007.72
2018-06-23T07:56:44.202Z,94989.59
2018-06-23T07:59:12.858Z,94980.30
2018-06-23T08:01:41.572Z,94992.64
2018-06-23T08:04:10.191Z,94986.06
2018-06-23T08:06:38.802Z,94949.00
2018-06-23T08:09:09.158Z,94992.30
2018-06-23T08:11:37.866Z,94998.48
2018-06-23T08:14:06.560Z,95008.77
2018-06-23T08:16:35.259Z,94973.79
2018-06-23T08:19:03.974Z,94986.89
2018-06-23T08:21:32.625Z,94998.77
2018-06-23T08:24:01.266Z,94998.38
2018-06-23T08:26:29.943Z,94996.64
2018-06-23T08:28:58.638Z,95001.92
2018-06-23T08:31:27.287Z,95000.06
2018-06-23T08:33:55.914Z,94985.41
2018-06-23T08:36:24.650Z,94989.19
2018-06-23T08:38:53.515Z,94981.25
2018-06-23T08:41:22.200Z,94987.34
2018-06-23T08:43:50.868Z,94993.50
2018-06-23T08:46:19.518Z,95013.30
2018-06-23T08:48:48.170Z,94987.16
2018-06-23T08:51:17.185Z,94970.29
2018-06-23T08:53:45.951Z,94966.39
2018-06-23T08:56:14.642Z,94972.52
2018-06-23T08:58:43.298Z,94973.55
2018-06-23T09:01:11.982Z,94987.09
2018-06-23T09:03:40.911Z,94952.88
2018-06-23T09:06:09.637Z,94973.39
2018-06-23T09:08:38.387Z,94973.50
2018-06-23T09:11:07.104Z,94972.13
2018-06-23T09:13:35.928Z,94966.53
2018-06-23T09:16:04.602Z,94978.52
2018-06-23T09:18:33.219Z,94966.84
2018-06-23T09:21:01.874Z,94960.88
2018-06-23T09:23:30.513Z,94956.64
2018-06-23T09:25:59.186Z,94959.66
2018-06-23T09:28:28.509Z,94948.91
2018-06-23T09:30:57.153Z,94964.14
2018-06-23T09:33:25.893Z,94963.42
2018-06-23T09:35:54.505Z,94969.58
2018-06-23T09:38:23.278Z,94972.63
2018-06-23T09:40:52.019Z,94967.95
2018-06-23T09:43:20.823Z,94959.27
2018-06-23T09:45:49.511Z,94974.75
2018-06-23T09:48:18.201Z,94956.79
2018-06-23T09:50:46.887Z,94952.80
2018-06-23T09:53:15.558Z,94970.03
2018-06-23T09:55:44.227Z,94951.87
2018-06-23T09:58:13.088Z,94935.78
2018-06-23T10:00:41.796Z,94966.53
2018-06-23T10:03:10.456Z,94939.44
2018-06-23T10:05:39.095Z,94948.51
2018-06-23T10:08:07.895Z,94936.64
2018-06-23T10:10:36.599Z,94924.40
2018-06-23T10:13:05.582Z,94922.55
2018-06-23T10:15:34.220Z,94954.77
2018-06-23T10:18:02.844Z,94932.34
2018-06-23T10:20:31.534Z,94937.72
2018-06-23T10:23:00.123Z,94916.39
2018-06-23T10:25:28.730Z,94920.38
2018-06-23T10:27:57.358Z,94938.68
2018-06-23T10:30:26.133Z,94934.56
2018-06-23T10:32:54.773Z,94904.27
2018-06-23T10:35:23.461Z,94908.67
2018-06-23T10:37:52.103Z,94902.96
2018-06-23T10:40:20.825Z,94885.80
2018-06-23T10:42:49.459Z,94884.64
2018-06-23T10:45:18.141Z,94888.08
2018-06-23T10:47:46.775Z,94884.15
2018-06-23T10:50:15.752Z,94898.57
2018-06-23T10:52:44.452Z,94883.11
2018-06-23T10:55:13.149Z,94883.65
2018-06-23T10:57:41.802Z,94873.55
2018-06-23T11:00:10.585Z,94886.77
2018-06-23T11:02:39.284Z,94862.13
2018-06-23T11:05:07.979Z,94872.02
2018-06-23T11:07:36.727Z,94878.58
2018-06-23T11:10:06.093Z,94868.17
2018-06-23T11:12:34.765Z,94844.64
2018-06-23T11:15:03.522Z,94844.66
2018-06-23T11:17:32.273Z,94849.64
2018-06-23T11:20:00.945Z,94839.13
2018-06-23T11:22:29.674Z,94841.31
2018-06-23T11:24:58.337Z,94843.03
2018-06-23T11:27:26.919Z,94822.88
2018-06-23T11:29:55.558Z,94817.94
2018-06-23T11:32:24.218Z,94828.09
2018-06-23T11:34:52.825Z,94816.84
2018-06-23T11:37:21.471Z,94834.45
2018-06-23T11:39:50.213Z,94832.02
2018-06-23T11:42:19.101Z,94818.31
2018-06-23T11:44:47.748Z,94821.30
2018-06-23T11:47:16.368Z,94818.89
2018-06-23T11:49:45.025Z,94802.89
2018-06-23T11:52:14.004Z,94805.25
2018-06-23T11:54:42.708Z,94804.95
2018-06-23T11:57:11.332Z,94792.05
2018-06-23T11:59:40.017Z,94788.30
2018-06-23T12:02:08.795Z,94802.90
2018-06-23T12:04:37.489Z,94807.09
2018-06-23T12:07:06.081Z,94802.70
2018-06-23T12:09:34.746Z,94800.38
2018-06-23T12:12:03.503Z,94795.12
2018-06-23T12:14:32.604Z,94792.34
2018-06-23T12:17:01.257Z,94782.59
2018-06-23T12:19:30.598Z,94807.32
2018-06-23T12:21:59.374Z,94797.64
2018-06-23T12:24:28.458Z,94788.10
2018-06-23T12:26:57.144Z,94793.66
2018-06-23T12:29:26.101Z,94778.12
2018-06-23T12:31:54.839Z,94779.58
2018-06-23T12:34:23.570Z,94791.08
2018-06-23T12:36:52.215Z,94770.00
2018-06-23T12:39:20.818Z,94784.25
2018-06-23T12:41:49.524Z,94772.41
2018-06-23T12:44:19.111Z,94767.67
2018-06-23T12:46:47.780Z,94777.48
2018-06-23T12:49:16.462Z,94768.94
2018-06-23T12:51:45.533Z,94763.11
2018-06-23T12:54:14.186Z,94794.01
2018-06-23T12:56:42.785Z,94767.13
2018-06-23T12:59:11.443Z,94765.48
2018-06-23T13:01:40.114Z,94771.33
2018-06-23T13:04:08.819Z,94767.82
2018-06-23T13:06:37.471Z,94750.96
2018-06-23T13:09:09.197Z,94760.89
2018-06-23T13:11:37.992Z,94745.45
2018-06-23T13:14:06.678Z,94737.13
2018-06-23T13:16:35.368Z,94752.81
2018-06-23T13:19:04.086Z,94738.64
2018-06-23T13:21:32.767Z,94764.66
2018-06-23T13:24:01.436Z,94764.38
2018-06-23T13:26:30.453Z,94751.08
2018-06-23T13:28:59.111Z,94749.64
2018-06-23T13:31:27.951Z,94745.40
2018-06-23T13:33:56.562Z,94746.08
2018-06-23T13:36:25.210Z,94755.47
2018-06-23T13:38:53.880Z,94753.34
2018-06-23T13:41:22.852Z,94747.03
2018-06-23T13:43:51.852Z,94751.59
2018-06-23T13:46:20.521Z,94752.72
2018-06-23T13:48:49.217Z,94752.05
2018-06-23T13:51:18.179Z,94755.41
2018-06-23T13:53:46.902Z,94753.83
2018-06-23T13:56:15.531Z,94742.59
2018-06-23T13:58:44.385Z,94765.00
2018-06-23T14:01:13.061Z,94754.98
2018-06-23T14:03:41.754Z,94752.33
2018-06-23T14:06:10.381Z,94762.22
2018-06-23T14:08:39.327Z,94761.69
2018-06-23T14:11:08.039Z,94761.55
2018-06-23T14:13:36.723Z,94754.15
2018-06-23T14:16:05.601Z,94761.78
2018-06-23T14:18:34.238Z,94746.03
2018-06-23T14:21:02.927Z,94744.78
2018-06-23T14:23:31.658Z,94746.66
2018-06-23T14:26:00.358Z,94740.52
2018-06-23T14:28:29.098Z,94731.64
2018-06-23T14:30:57.740Z,94729.77
2018-06-23T14:33:26.427Z,94727.59
2018-06-23T14:35:55.048Z,94726.73
2018-06-23T14:38:23.734Z,94731.05
2018-06-23T14:40:52.472Z,94721.25
2018-06-23T14:43:21.109Z,94720.27
2018-06-23T14:45:49.830Z,94717.03
2018-06-23T14:48:18.564Z,94733.38
2018-06-23T14:50:47.226Z,94716.64
2018-06-23T14:53:16.699Z,94722.29
2018-06-23T14:55:45.395Z,94724.36
2018-06-23T14:58:14.745Z,94732.53
2018-06-23T15:00:43.450Z,94749.89
2018-06-23T15:03:12.143Z,94729.88
2018-06-23T15:05:41.155Z,94732.17
2018-06-23T15:08:20.956Z,94733.06
2018-06-23T15:11:00.647Z,94734.77
2018-06-23T15:13:29.333Z,94741.58
2018-06-23T15:15:57.970Z,94749.48
2018-06-23T15:18:27.126Z,94741.14
2018-06-23T15:20:55.829Z,94740.91
2018-06-23T15:23:24.455Z,94755.97
2018-06-23T15:25:53.140Z,94772.54
2018-06-23T15:28:21.841Z,94758.83
2018-06-23T15:30:50.539Z,94755.75
2018-06-23T15:33:19.172Z,94767.35
2018-06-23T15:35:48.434Z,94768.77
2018-06-23T15:38:17.214Z,94771.25
2018-06-23T15:40:45.770Z,94765.69
2018-06-23T15:43:14.488Z,94754.33
2018-06-23T15:45:43.225Z,94757.78
2018-06-23T15:48:11.938Z,94756.92
2018-06-23T15:50:40.591Z,94763.52
2018-06-23T15:53:09.337Z,94765.68
2018-06-23T15:55:38.328Z,94771.53
2018-06-23T15:58:06.957Z,94767.27
2018-06-23T16:00:35.589Z,94771.95
2018-06-23T16:03:04.244Z,94772.14
2018-06-23T16:05:32.904Z,94767.32
2018-06-23T16:08:01.539Z,94776.78
2018-06-23T16:10:30.187Z,94787.78
2018-06-23T16:12:58.926Z,94763.39
2018-06-23T16:15:27.662Z,94772.31
2018-06-23T16:17:56.305Z,94773.33
2018-06-23T16:20:25.016Z,94794.77
2018-06-23T16:22:53.640Z,94768.90
2018-06-23T16:25:22.314Z,94785.48
2018-06-23T16:27:51.008Z,94780.17
2018-06-23T16:30:19.724Z,94784.67
2018-06-23T16:32:48.357Z,94791.59
2018-06-23T16:35:17.314Z,94812.41
2018-06-23T16:37:46.044Z,94806.98
2018-06-23T16:40:14.718Z,94801.19
2018-06-23T16:42:43.342Z,94801.20
2018-06-23T16:45:11.994Z,94799.36
2018-06-23T16:47:40.673Z,94802.03
2018-06-23T16:50:09.922Z,94814.04
2018-06-23T16:52:38.637Z,94809.47
2018-06-23T16:55:07.430Z,94824.08
2018-06-23T16:57:36.083Z,94816.60
2018-06-23T17:00:06.935Z,94818.57
2018-06-23T17:02:35.582Z,94808.69
2018-06-23T17:05:04.365Z,94816.83
2018-06-23T17:07:33.080Z,94817.61
2018-06-23T17:10:01.824Z,94823.13
2018-06-23T17:12:30.498Z,94839.69
2018-06-23T17:14:59.127Z,94832.55
2018-06-23T17:17:27.762Z,94826.36
2018-06-23T17:19:56.444Z,94816.17
2018-06-23T17:22:25.077Z,94822.84
2018-06-23T17:24:53.742Z,94833.96
2018-06-23T17:27:22.361Z,94836.59
2018-06-23T17:29:51.018Z,94843.75
2018-06-23T17:32:19.701Z,94838.52
2018-06-23T17:34:48.395Z,94846.71
2018-06-23T17:37:17.051Z,94853.17
2018-06-23T17:39:46.596Z,94851.95
2018-06-23T17:42:15.322Z,94846.71
2018-06-23T17:44:44.032Z,94846.19
2018-06-23T17:47:13.403Z,94850.14
2018-06-23T17:49:42.190Z,94854.58
2018-06-23T17:52:10.843Z,94844.69
2018-06-23T17:54:39.483Z,94854.28
2018-06-23T17:57:08.174Z,94858.61
2018-06-23T17:59:37.611Z,94852.34
2018-06-23T18:02:06.788Z,94848.90
2018-06-23T18:04:35.482Z,94852.00
2018-06-23T18:07:04.203Z,94858.51
2018-06-23T18:09:32.871Z,94868.25
2018-06-23T18:12:01.666Z,94864.49
2018-06-23T18:14:31.265Z,94867.83
2018-06-23T18:16:59.941Z,94863.64
2018-06-23T18:19:28.937Z,94869.97
2018-06-23T18:21:57.680Z,94868.75
2018-06-23T18:24:26.309Z,94871.03
2018-06-23T18:26:54.964Z,94873.34
2018-06-23T18:29:23.674Z,94877.24
2018-06-23T18:31:52.334Z,94880.63
2018-06-23T18:34:20.990Z,94882.91
2018-06-23T18:36:49.960Z,94894.69
2018-06-23T18:39:18.567Z,94890.45
2018-06-23T18:41:47.272Z,94898.70
2018-06-23T18:44:15.922Z,94897.47
2018-06-23T18:46:44.558Z,94896.65
2018-06-23T18:49:13.217Z,94902.39
2018-06-23T18:51:42.002Z,94904.47
2018-06-23T18:54:10.654Z,94909.70
2018-06-23T18:58:35.274Z,94912.23
2018-06-23T19:01:04.007Z,94927.70
2018-06-23T19:03:32.646Z,94932.31
2018-06-23T19:06:01.287Z,94929.45
2018-06-23T19:08:29.946Z,94931.98
2018-06-23T19:10:58.572Z,94930.80
2018-06-23T19:13:27.233Z,94936.98
2018-06-23T19:15:55.866Z,94937.10
2018-06-23T19:18:24.535Z,94944.75
2018-06-23T19:20:53.262Z,94938.38
2018-06-23T19:23:21.898Z,94947.25
2018-06-23T19:25:50.717Z,94945.15
2018-06-23T19:28:19.365Z,94947.30
2018-06-23T19:30:48.050Z,94946.78
2018-06-23T19:33:16.661Z,94948.17
2018-06-23T19:35:45.408Z,94950.66
2018-06-23T19:38:14.023Z,94945.63
2018-06-23T19:40:42.709Z,94946.30
2018-06-23T19:43:11.337Z,94947.81
2018-06-23T19:45:40.083Z,94945.28
2018-06-23T19:48:09.374Z,94943.49
2018-06-23T19:50:38.060Z,94946.62
2018-06-23T19:53:06.703Z,94948.36
2018-06-23T19:55:35.356Z,94946.73
2018-06-23T19:58:04.021Z,94946.62
2018-06-23T20:00:32.683Z,94945.06
2018-06-23T20:03:01.330Z,94944.62
2018-06-23T20:05:29.944Z,94943.75
2018-06-23T20:07:58.632Z,94943.69
2018-06-23T20:10:27.299Z,94947.19
2018-06-23T20:12:55.974Z,94942.06
2018-06-23T20:15:24.650Z,94936.05
2018-06-23T20:17:53.316Z,94942.45
2018-06-23T20:20:22.122Z,94951.03
2018-06-23T20:22:50.784Z,94942.55
2018-06-23T20:25:20.369Z,94946.98
2018-06-23T20:27:49.058Z,94946.36
2018-06-23T20:30:17.750Z,94954.41
2018-06-23T20:32:46.413Z,94958.56
2018-06-23T20:35:15.749Z,94956.65
2018-06-23T20:37:44.435Z,94957.55
2018-06-23T20:40:13.085Z,94958.56
2018-06-23T20:42:41.742Z,94953.81
2018-06-23T20:45:10.369Z,94949.89
2018-06-23T20:47:38.983Z,94953.63
2018-06-23T20:50:07.655Z,94946.17
2018-06-23T20:52:36.869Z,94946.45
2018-06-23T20:55:05.661Z,94954.36
2018-06-23T20:57:34.347Z,94948.23
2018-06-23T21:00:06.245Z,94950.98
2018-06-23T21:02:34.932Z,94954.30
2018-06-23T21:05:03.588Z,94949.09
2018-06-23T21:07:32.184Z,94952.28
2018-06-23T21:10:01.643Z,94942.63
2018-06-23T21:12:30.378Z,94944.95
2018-06-23T21:14:59.305Z,94950.45
2018-06-23T21:17:28.019Z,94952.86
2018-06-23T21:19:56.787Z,94958.48
2018-06-23T21:22:25.449Z,94948.70
2018-06-23T21:24:54.049Z,94953.00
2018-06-23T21:27:22.667Z,94949.42
2018-06-23T21:29:51.295Z,94953.02
2018-06-23T21:32:19.943Z,94948.78
2018-06-23T21:34:49.170Z,94958.70
2018-06-23T21:37:17.812Z,94946.61
2018-06-23T21:39:46.446Z,94946.41
2018-06-23T21:42:15.106Z,94948.89
2018-06-23T21:44:43.920Z,94947.39
2018-06-23T21:47:12.587Z,94949.61
2018-06-23T21:49:41.291Z,94952.41
2018-06-23T21:52:09.974Z,94949.42
2018-06-23T21:54:38.614Z,94948.44
2018-06-23T21:57:07.254Z,94945.05
2018-06-23T21:59:35.949Z,94940.69
2018-06-23T22:02:04.680Z,94943.14
2018-06-23T22:04:33.406Z,94943.88
2018-06-23T22:07:02.091Z,94942.55
2018-06-23T22:09:30.678Z,94940.87
2018-06-23T22:11:59.327Z,94939.80
2018-06-23T22:14:28.006Z,94934.58
2018-06-23T22:16:56.655Z,94936.74
2018-06-23T22:19:25.320Z,94938.91
2018-06-23T22:21:54.022Z,94941.44
2018-06-23T22:24:22.719Z,94946.16
2018-06-23T22:26:51.421Z,94941.27
2018-06-23T22:29:20.024Z,94915.38
2018-06-23T22:31:48.813Z,94943.56
2018-06-23T22:34:17.493Z,94942.66
2018-06-23T22:36:46.212Z,94946.06
2018-06-23T22:39:14.825Z,94939.83
2018-06-23T22:41:43.493Z,94942.30
2018-06-23T22:44:12.148Z,94934.19
2018-06-23T22:46:40.870Z,94937.41
2018-06-23T22:49:09.490Z,94938.08
2018-06-23T22:51:38.184Z,94938.28
2018-06-23T22:54:06.850Z,94934.53
2018-06-23T22:56:35.498Z,94937.30
2018-06-23T22:59:04.193Z,94941.91
2018-06-23T23:01:32.863Z,94933.95
2018-06-23T23:04:01.499Z,94932.79
2018-06-23T23:06:30.115Z,94939.45
2018-06-23T23:08:58.752Z,94933.94
2018-06-23T23:11:27.422Z,94935.06
2018-06-23T23:13:56.104Z,94933.37
2018-06-23T23:16:24.855Z,94930.05
2018-06-23T23:18:53.523Z,94924.56
2018-06-23T23:21:22.159Z,94924.04
2018-06-23T23:23:50.787Z,94924.70
2018-06-23T23:26:19.518Z,94920.97
2018-06-23T23:28:48.130Z,94920.20
2018-06-23T23:31:17.078Z,94925.60
2018-06-23T23:33:45.977Z,94916.00
2018-06-23T23:36:14.711Z,94918.42
2018-06-23T23:38:43.377Z,94921.79
2018-06-23T23:41:12.097Z,94914.90
2018-06-23T23:43:40.741Z,94915.41
2018-06-23T23:46:09.394Z,94907.83
2018-06-23T23:48:37.994Z,94910.81
2018-06-23T23:51:06.674Z,94904.09
2018-06-23T23:53:35.332Z,94903.86
2018-06-23T23:56:04.069Z,94907.08
2018-06-23T23:58:32.769Z,94910.52
